Time;durP1;ratioP1;P1;durP2;ratioP2;P2;SDS_P1;SDS_P2;PMS_P1;PMS_P2;Temp;Humidity;BMP_temperature;BMP_pressure;BME280_temperature;BME280_humidity;BME280_pressure;Samples;Min_cycle;Max_cycle;Signal;HPM_P1;HPM_P2
2022/04/06 00:01:15;;;;;;;28.15;8.63;;;9.20;99.90;;;;;;5027617;28;20080;-66
2022/04/06 00:03:43;;;;;;;22.88;9.55;;;9.20;99.90;;;;;;5011241;28;20041;-66
2022/04/06 00:06:09;;;;;;;28.00;9.10;;;9.20;99.90;;;;;;5020748;28;20045;-66
2022/04/06 00:08:34;;;;;;;20.55;7.85;;;9.20;99.90;;;;;;5028119;28;20523;-66
2022/04/06 00:11:00;;;;;;;20.27;8.60;;;9.20;99.90;;;;;;5028599;28;20681;-66
2022/04/06 00:13:25;;;;;;;27.38;8.82;;;9.20;99.90;;;;;;5017975;28;20049;-67
2022/04/06 00:15:51;;;;;;;23.20;8.27;;;9.20;99.90;;;;;;5018559;28;20041;-66
2022/04/06 00:18:16;;;;;;;27.42;9.10;;;9.20;99.90;;;;;;5028654;28;20085;-66
2022/04/06 00:20:42;;;;;;;27.45;9.73;;;9.20;99.90;;;;;;5027240;28;20045;-66
2022/04/06 00:23:09;;;;;;;25.50;9.15;;;9.20;99.90;;;;;;5009111;28;20192;-66
2022/04/06 00:25:34;;;;;;;21.35;8.20;;;9.20;99.90;;;;;;5016102;28;20477;-66
2022/04/06 00:28:00;;;;;;;25.25;9.00;;;9.30;99.90;;;;;;5026751;28;20048;-66
2022/04/06 00:30:25;;;;;;;28.02;8.93;;;9.30;99.90;;;;;;5011622;28;20056;-66
2022/04/06 00:32:51;;;;;;;27.17;8.80;;;9.30;99.90;;;;;;5023099;28;20057;-66
2022/04/06 00:35:29;;;;;;;22.38;8.35;;;9.30;99.90;;;;;;5021984;28;20125;-66
2022/04/06 00:37:59;;;;;;;21.73;7.60;;;9.30;99.90;;;;;;5018571;28;20057;-66
2022/04/06 00:40:25;;;;;;;21.10;6.88;;;9.30;99.90;;;;;;5026960;28;20563;-66
2022/04/06 00:42:53;;;;;;;27.63;7.20;;;9.30;99.90;;;;;;5012578;28;20041;-66
2022/04/06 00:45:21;;;;;;;22.58;5.90;;;9.30;99.90;;;;;;5011508;28;20717;-67
2022/04/06 00:47:48;;;;;;;17.13;6.10;;;9.40;99.90;;;;;;5013297;28;20041;-66
2022/04/06 00:50:13;;;;;;;26.85;6.40;;;9.40;99.90;;;;;;5026484;28;20041;-66
2022/04/06 00:52:39;;;;;;;23.15;7.03;;;9.40;99.90;;;;;;5020521;28;20675;-66
2022/04/06 00:55:06;;;;;;;27.55;7.40;;;9.40;99.90;;;;;;5009517;28;20038;-66
2022/04/06 00:57:32;;;;;;;14.73;5.82;;;9.40;99.90;;;;;;5008407;28;20049;-66
2022/04/06 00:59:58;;;;;;;14.05;5.53;;;9.40;99.90;;;;;;5015993;28;20042;-66
2022/04/06 01:02:25;;;;;;;19.08;5.40;;;9.40;99.90;;;;;;5024360;28;20041;-66
2022/04/06 01:04:51;;;;;;;12.85;4.63;;;9.40;99.90;;;;;;5022058;28;20038;-66
2022/04/06 01:07:18;;;;;;;15.68;5.20;;;9.40;99.90;;;;;;5012665;28;20463;-66
2022/04/06 01:09:43;;;;;;;13.90;3.92;;;9.40;99.90;;;;;;5024285;28;20069;-66
2022/04/06 01:12:09;;;;;;;16.20;4.38;;;9.40;99.90;;;;;;5018328;28;20101;-66
2022/04/06 01:14:35;;;;;;;11.98;4.63;;;9.50;99.90;;;;;;5014801;28;20056;-66
2022/04/06 01:17:04;;;;;;;16.98;4.20;;;9.50;99.90;;;;;;5013021;28;20500;-66
2022/04/06 01:19:35;;;;;;;8.02;3.42;;;9.50;99.90;;;;;;5027179;28;20563;-66
2022/04/06 01:22:06;;;;;;;21.77;4.82;;;9.50;99.90;;;;;;5022689;28;20046;-66
2022/04/06 01:24:31;;;;;;;13.63;4.13;;;9.50;99.90;;;;;;5009063;28;20787;-66
2022/04/06 01:27:00;;;;;;;10.93;3.75;;;9.50;99.90;;;;;;5024293;28;20057;-66
2022/04/06 01:29:26;;;;;;;17.27;5.18;;;9.50;99.90;;;;;;5013765;28;20046;-66
2022/04/06 01:31:51;;;;;;;16.88;5.07;;;9.50;99.90;;;;;;5013305;28;20128;-66
2022/04/06 01:34:17;;;;;;;14.88;4.20;;;9.50;99.90;;;;;;5016822;28;20145;-67
2022/04/06 01:36:42;;;;;;;23.58;4.95;;;9.50;99.90;;;;;;5023341;28;20045;-66
2022/04/06 01:39:08;;;;;;;9.82;3.25;;;9.50;99.90;;;;;;5026259;28;20418;-66
2022/04/06 01:41:34;;;;;;;15.13;3.53;;;9.50;99.90;;;;;;5027116;28;20540;-66
2022/04/06 01:44:01;;;;;;;18.05;4.18;;;9.50;99.90;;;;;;5019182;28;20506;-66
2022/04/06 01:46:26;;;;;;;17.30;3.17;;;9.50;99.90;;;;;;5020828;28;20069;-66
2022/04/06 01:54:24;;;;;;;13.65;4.13;;;9.50;99.90;;;;;;5015702;28;20058;-66
2022/04/06 01:56:50;;;;;;;17.63;4.07;;;9.50;99.90;;;;;;5030637;28;20044;-66
2022/04/06 01:59:16;;;;;;;16.33;3.60;;;9.50;99.90;;;;;;5030931;28;20133;-66
2022/04/06 02:01:43;;;;;;;11.90;3.25;;;9.40;99.90;;;;;;5023193;28;20124;-66
2022/04/06 02:04:15;;;;;;;15.90;3.80;;;9.50;99.90;;;;;;5017023;28;20096;-66
2022/04/06 02:06:41;;;;;;;17.67;3.13;;;9.50;99.90;;;;;;5021823;28;20405;-66
2022/04/06 02:09:06;;;;;;;19.52;4.15;;;9.50;99.90;;;;;;5022806;28;20049;-66
2022/04/06 02:11:32;;;;;;;10.57;2.35;;;9.40;99.90;;;;;;5028689;28;20053;-66
2022/04/06 02:13:58;;;;;;;16.67;3.60;;;9.50;99.90;;;;;;5021335;28;20080;-66
2022/04/06 02:16:23;;;;;;;10.05;2.50;;;9.50;99.90;;;;;;5028501;28;20052;-66
2022/04/06 02:18:50;;;;;;;15.50;3.25;;;9.50;99.90;;;;;;5030165;28;20037;-66
2022/04/06 02:21:15;;;;;;;10.43;2.63;;;9.40;99.90;;;;;;5024362;28;20417;-66
2022/04/06 02:23:41;;;;;;;13.85;2.92;;;9.50;99.90;;;;;;5030386;28;20393;-66
2022/04/06 02:26:06;;;;;;;9.90;3.92;;;9.50;99.90;;;;;;5023206;28;20064;-66
2022/04/06 02:28:32;;;;;;;13.20;2.90;;;9.50;99.90;;;;;;5029010;28;20528;-66
2022/04/06 02:30:57;;;;;;;8.48;2.85;;;9.50;99.90;;;;;;5019235;28;20045;-66
2022/04/06 02:33:23;;;;;;;12.05;4.18;;;9.50;99.90;;;;;;5028351;28;20041;-66
2022/04/06 02:35:48;;;;;;;14.32;3.15;;;9.50;99.90;;;;;;5030412;28;20034;-66
2022/04/06 02:38:14;;;;;;;9.25;2.88;;;9.50;99.90;;;;;;5019961;28;20050;-66
2022/04/06 02:40:40;;;;;;;23.02;4.82;;;9.50;99.90;;;;;;5020636;28;20092;-66
2022/04/06 02:43:05;;;;;;;21.17;4.00;;;9.50;99.90;;;;;;5029435;28;20084;-66
2022/04/06 02:45:31;;;;;;;11.32;4.10;;;9.50;99.90;;;;;;5029970;28;20050;-66
2022/04/06 02:47:56;;;;;;;15.88;3.20;;;9.50;99.90;;;;;;5019799;28;20037;-66
2022/04/06 02:50:22;;;;;;;10.05;2.88;;;9.50;99.90;;;;;;5022407;28;20049;-66
2022/04/06 02:52:47;;;;;;;18.75;3.85;;;9.50;99.90;;;;;;5012997;28;20439;-66
2022/04/06 02:55:13;;;;;;;13.10;3.13;;;9.50;99.90;;;;;;5020223;28;20041;-66
2022/04/06 02:57:41;;;;;;;6.95;2.97;;;9.50;99.90;;;;;;5023451;28;20054;-66
2022/04/06 03:00:08;;;;;;;19.65;4.28;;;9.50;99.90;;;;;;5029960;28;20037;-66
2022/04/06 03:02:33;;;;;;;20.92;6.70;;;9.50;99.90;;;;;;5029561;28;20045;-66
2022/04/06 03:04:59;;;;;;;15.77;4.07;;;9.40;99.90;;;;;;5016582;28;20115;-66
2022/04/06 03:07:24;;;;;;;13.20;4.25;;;9.50;99.90;;;;;;5025276;28;20045;-66
2022/04/06 03:09:50;;;;;;;19.05;4.05;;;9.40;99.90;;;;;;5026659;28;20046;-66
2022/04/06 03:12:16;;;;;;;20.10;5.68;;;9.50;99.90;;;;;;5023649;28;20405;-66
2022/04/06 03:14:41;;;;;;;12.95;4.50;;;9.50;99.90;;;;;;5028252;28;20048;-66
2022/04/06 03:17:07;;;;;;;10.90;4.43;;;9.50;99.90;;;;;;5015037;28;20045;-66
2022/04/06 03:19:33;;;;;;;24.40;5.32;;;9.50;99.90;;;;;;5024890;28;20437;-66
2022/04/06 03:21:58;;;;;;;18.40;5.18;;;9.50;99.90;;;;;;5021157;28;20163;-66
2022/04/06 03:24:24;;;;;;;16.08;4.43;;;9.50;99.90;;;;;;5024543;28;20050;-67
2022/04/06 03:26:49;;;;;;;14.45;5.35;;;9.40;99.90;;;;;;5028550;28;20045;-67
2022/04/06 03:29:15;;;;;;;18.67;5.50;;;9.40;99.90;;;;;;5008853;28;20057;-67
2022/04/06 03:31:41;;;;;;;18.55;6.28;;;9.30;99.90;;;;;;5018567;28;20053;-67
2022/04/06 03:34:07;;;;;;;19.25;6.03;;;9.30;99.90;;;;;;5029471;28;20033;-67
2022/04/06 03:36:32;;;;;;;14.40;5.07;;;9.20;99.90;;;;;;5025063;28;20061;-67
2022/04/06 03:38:58;;;;;;;18.85;6.25;;;9.20;99.90;;;;;;5023685;28;20049;-67
2022/04/06 03:41:23;;;;;;;19.23;6.28;;;9.30;99.90;;;;;;5018285;28;20038;-67
2022/04/06 03:43:49;;;;;;;17.15;5.32;;;9.20;99.90;;;;;;5014745;28;20053;-66
2022/04/06 03:46:14;;;;;;;20.58;4.72;;;9.20;99.90;;;;;;5015841;28;20045;-67
2022/04/06 03:48:40;;;;;;;23.65;6.40;;;9.10;99.90;;;;;;5024882;28;20046;-66
2022/04/06 03:51:06;;;;;;;16.98;5.70;;;9.10;99.90;;;;;;5018532;28;20559;-66
2022/04/06 03:53:31;;;;;;;17.65;5.55;;;9.10;99.90;;;;;;5021276;28;20050;-66
2022/04/06 03:55:57;;;;;;;29.17;5.65;;;9.00;99.90;;;;;;5026042;28;20481;-66
2022/04/06 03:58:22;;;;;;;29.20;6.10;;;9.00;99.90;;;;;;5011150;28;20046;-66
2022/04/06 04:00:48;;;;;;;29.75;6.20;;;9.00;99.90;;;;;;5018739;28;20041;-67
2022/04/06 04:03:13;;;;;;;19.42;5.47;;;9.00;99.90;;;;;;5013832;28;20485;-66
2022/04/06 04:05:39;;;;;;;23.88;6.80;;;9.00;99.90;;;;;;5017510;28;20037;-67
2022/04/06 04:08:05;;;;;;;16.25;5.40;;;9.00;99.90;;;;;;5022896;28;20042;-66
2022/04/06 04:10:30;;;;;;;21.35;6.55;;;8.90;99.90;;;;;;5027312;28;20794;-66
2022/04/06 04:12:56;;;;;;;25.33;6.20;;;8.90;99.90;;;;;;5013276;28;20128;-67
2022/04/06 04:15:22;;;;;;;23.38;6.18;;;8.90;99.90;;;;;;5013252;28;20129;-66
2022/04/06 04:17:47;;;;;;;21.20;6.68;;;8.90;99.90;;;;;;5026476;28;20146;-67
2022/04/06 04:20:13;;;;;;;16.30;4.80;;;8.90;99.90;;;;;;5018554;28;20234;-67
2022/04/06 04:22:39;;;;;;;17.08;4.95;;;8.90;99.90;;;;;;5019342;28;20042;-67
2022/04/06 04:25:06;;;;;;;20.52;5.70;;;8.90;99.90;;;;;;5022270;28;20049;-67
2022/04/06 04:27:32;;;;;;;21.23;5.53;;;8.90;99.90;;;;;;5027255;28;20116;-66
2022/04/06 04:29:58;;;;;;;22.35;5.70;;;8.80;99.90;;;;;;5015094;28;20129;-67
2022/04/06 04:32:23;;;;;;;27.20;6.18;;;8.80;99.90;;;;;;5010645;28;20535;-66
2022/04/06 04:34:49;;;;;;;29.83;5.90;;;8.80;99.90;;;;;;5019682;28;20041;-67
2022/04/06 04:37:14;;;;;;;18.00;6.00;;;8.80;99.90;;;;;;5027955;28;20045;-67
2022/04/06 04:39:40;;;;;;;28.40;5.93;;;8.80;99.90;;;;;;5017260;28;20091;-67
2022/04/06 04:42:06;;;;;;;23.05;5.10;;;8.80;99.90;;;;;;5021278;28;20053;-67
2022/04/06 04:44:32;;;;;;;19.38;5.35;;;8.80;99.90;;;;;;5027650;28;20052;-67
2022/04/06 04:46:58;;;;;;;20.30;6.25;;;8.80;99.90;;;;;;5010904;28;20042;-67
2022/04/06 04:49:23;;;;;;;19.00;4.45;;;8.80;99.90;;;;;;5023833;28;20037;-67
2022/04/06 04:51:49;;;;;;;23.02;6.32;;;8.80;99.90;;;;;;5019185;28;20053;-67
2022/04/06 04:54:16;;;;;;;20.55;6.30;;;8.80;99.90;;;;;;5014443;28;20049;-67
2022/04/06 04:56:42;;;;;;;30.00;7.13;;;8.80;99.90;;;;;;5019821;28;20446;-67
2022/04/06 04:59:08;;;;;;;20.33;6.10;;;8.80;99.90;;;;;;5028418;28;20398;-67
2022/04/06 05:01:34;;;;;;;21.13;5.38;;;8.80;99.90;;;;;;5027303;28;20052;-67
2022/04/06 05:04:00;;;;;;;23.15;7.00;;;8.70;99.90;;;;;;5014164;28;20099;-67
2022/04/06 05:06:25;;;;;;;19.55;5.97;;;8.70;99.90;;;;;;5018694;28;20049;-67
2022/04/06 05:08:51;;;;;;;18.63;5.60;;;8.70;99.90;;;;;;5027400;28;20057;-67
2022/04/06 05:11:17;;;;;;;25.73;7.90;;;8.70;99.90;;;;;;5019669;28;20087;-67
2022/04/06 05:13:43;;;;;;;23.77;7.38;;;8.70;99.90;;;;;;5013311;28;20161;-67
2022/04/06 05:16:08;;;;;;;20.88;6.00;;;8.70;99.90;;;;;;5021123;28;20489;-67
2022/04/06 05:18:34;;;;;;;15.13;5.13;;;8.70;99.90;;;;;;5016797;28;20060;-68
2022/04/06 05:21:00;;;;;;;17.30;6.22;;;8.70;99.90;;;;;;5027389;28;20133;-67
2022/04/06 05:23:25;;;;;;;31.83;6.13;;;8.70;99.90;;;;;;5022578;28;20056;-67
2022/04/06 05:25:51;;;;;;;24.70;5.88;;;8.70;99.90;;;;;;5020540;28;20417;-67
2022/04/06 05:28:18;;;;;;;21.65;6.15;;;8.70;99.90;;;;;;5026416;28;20492;-67
2022/04/06 05:30:46;;;;;;;23.45;5.72;;;8.70;99.90;;;;;;5022345;28;20038;-67
2022/04/06 05:33:12;;;;;;;17.05;5.03;;;8.60;99.90;;;;;;5018075;28;20049;-68
2022/04/06 05:35:37;;;;;;;27.70;7.85;;;8.70;99.90;;;;;;5030766;28;20136;-68
2022/04/06 05:38:03;;;;;;;24.35;6.32;;;8.70;99.90;;;;;;5027735;28;20133;-68
2022/04/06 05:40:28;;;;;;;24.00;6.03;;;8.70;99.90;;;;;;5013581;28;20093;-68
2022/04/06 05:42:54;;;;;;;26.40;6.55;;;8.70;99.90;;;;;;5028637;28;20045;-68
2022/04/06 05:45:20;;;;;;;29.80;7.78;;;8.70;99.90;;;;;;5017481;28;20148;-67
2022/04/06 05:47:46;;;;;;;25.08;6.57;;;8.70;99.90;;;;;;5026772;28;20042;-67
2022/04/06 05:50:13;;;;;;;29.80;7.72;;;8.60;99.90;;;;;;5015776;28;20046;-67
2022/04/06 05:52:39;;;;;;;19.63;6.38;;;8.70;99.90;;;;;;5030059;28;20061;-68
2022/04/06 05:55:05;;;;;;;23.10;5.70;;;8.60;99.90;;;;;;5031114;28;20041;-67
2022/04/06 05:57:31;;;;;;;20.17;4.95;;;8.70;99.90;;;;;;5021845;28;20508;-67
2022/04/06 05:59:56;;;;;;;29.10;5.97;;;8.70;99.90;;;;;;5026914;28;20034;-67
2022/04/06 06:02:25;;;;;;;23.83;5.47;;;8.60;99.90;;;;;;5017314;28;20053;-67
2022/04/06 06:04:52;;;;;;;34.67;7.50;;;8.60;99.90;;;;;;5023809;28;20041;-67
2022/04/06 06:07:21;;;;;;;23.45;4.85;;;8.60;99.90;;;;;;5028319;28;20061;-67
2022/04/06 06:09:46;;;;;;;28.90;6.07;;;8.70;99.90;;;;;;5030464;28;20073;-67
2022/04/06 06:12:12;;;;;;;20.50;5.22;;;8.60;99.90;;;;;;5017984;28;20077;-67
2022/04/06 06:14:38;;;;;;;22.13;4.22;;;8.70;99.90;;;;;;5027414;28;20055;-67
2022/04/06 06:17:04;;;;;;;20.23;4.88;;;8.70;99.90;;;;;;5030251;28;20128;-67
2022/04/06 06:19:30;;;;;;;25.25;4.95;;;8.70;99.90;;;;;;5021087;28;20073;-66
2022/04/06 06:21:55;;;;;;;26.98;5.32;;;8.70;99.90;;;;;;5023062;28;20037;-68
2022/04/06 06:24:21;;;;;;;16.88;3.97;;;8.70;99.90;;;;;;5028286;28;20053;-67
2022/04/06 06:26:47;;;;;;;20.95;5.20;;;8.70;99.90;;;;;;5030546;28;20099;-68
2022/04/06 06:29:13;;;;;;;16.48;4.00;;;8.70;99.90;;;;;;5024043;28;21126;-67
2022/04/06 06:31:38;;;;;;;22.35;5.25;;;8.70;99.90;;;;;;5019269;28;20054;-67
2022/04/06 06:34:04;;;;;;;18.08;5.22;;;8.70;99.90;;;;;;5030905;28;20049;-67
2022/04/06 06:36:30;;;;;;;24.40;4.72;;;8.70;99.90;;;;;;5024856;28;20041;-67
2022/04/06 06:38:56;;;;;;;32.97;6.50;;;8.70;99.90;;;;;;5021180;28;20137;-67
2022/04/06 06:41:22;;;;;;;17.70;5.15;;;8.70;99.90;;;;;;5017171;28;20120;-67
2022/04/06 06:43:49;;;;;;;24.83;5.55;;;8.70;99.90;;;;;;5029286;28;20160;-67
2022/04/06 06:46:19;;;;;;;18.83;3.90;;;8.70;99.90;;;;;;5018683;28;20103;-67
2022/04/06 06:48:46;;;;;;;27.13;5.43;;;8.70;99.90;;;;;;5026892;28;20049;-66
2022/04/06 06:51:13;;;;;;;20.30;4.43;;;8.70;99.90;;;;;;5020508;28;20050;-67
2022/04/06 06:53:39;;;;;;;17.50;5.47;;;8.70;99.90;;;;;;5028844;28;20049;-67
2022/04/06 06:56:05;;;;;;;27.27;4.97;;;8.70;99.90;;;;;;5030533;28;20046;-67
2022/04/06 06:58:31;;;;;;;33.55;6.85;;;8.80;99.90;;;;;;5023450;28;20041;-67
2022/04/06 07:00:56;;;;;;;18.95;4.60;;;8.80;99.90;;;;;;5026516;28;20049;-67
2022/04/06 07:03:22;;;;;;;22.23;4.47;;;8.80;99.90;;;;;;5029583;28;20034;-67
2022/04/06 07:05:48;;;;;;;31.15;5.25;;;8.70;99.90;;;;;;5029047;28;20653;-67
2022/04/06 07:08:14;;;;;;;25.52;4.80;;;8.80;99.90;;;;;;5018672;28;20798;-67
2022/04/06 07:10:44;;;;;;;17.55;4.72;;;8.80;99.90;;;;;;5027954;28;20123;-67
2022/04/06 07:13:15;;;;;;;14.93;3.60;;;8.80;99.90;;;;;;5030214;28;20045;-67
2022/04/06 07:15:41;;;;;;;17.98;4.72;;;8.70;99.90;;;;;;5028302;28;20128;-67
2022/04/06 07:18:08;;;;;;;22.75;4.65;;;8.80;99.90;;;;;;5016959;28;20136;-67
2022/04/06 07:20:35;;;;;;;26.55;4.97;;;8.80;99.90;;;;;;5027936;28;20045;-67
2022/04/06 07:23:02;;;;;;;20.90;5.40;;;8.80;99.90;;;;;;5029279;28;20045;-67
2022/04/06 07:25:27;;;;;;;26.58;5.50;;;8.80;99.90;;;;;;5021454;28;20069;-67
2022/04/06 07:27:53;;;;;;;22.88;4.82;;;8.80;99.90;;;;;;5013992;28;20194;-67
2022/04/06 07:30:19;;;;;;;25.20;4.50;;;8.80;99.90;;;;;;5029115;28;20037;-67
2022/04/06 07:32:44;;;;;;;26.73;3.90;;;8.80;99.90;;;;;;5029702;28;20053;-66
2022/04/06 07:35:10;;;;;;;19.35;4.15;;;8.80;99.90;;;;;;5023667;28;20041;-66
2022/04/06 07:37:37;;;;;;;22.15;4.53;;;8.80;99.90;;;;;;5027394;28;20053;-66
2022/04/06 07:40:04;;;;;;;20.90;4.97;;;8.80;99.90;;;;;;5016559;28;20046;-66
2022/04/06 07:42:30;;;;;;;22.90;4.25;;;8.80;99.90;;;;;;5020446;28;20084;-67
2022/04/06 07:44:56;;;;;;;22.52;4.25;;;8.80;99.90;;;;;;5023822;28;20080;-66
2022/04/06 07:47:27;;;;;;;22.67;5.07;;;8.80;99.90;;;;;;5012904;28;20049;-66
2022/04/06 07:49:53;;;;;;;23.17;5.40;;;8.80;99.90;;;;;;5024980;28;20045;-66
2022/04/06 07:52:22;;;;;;;18.33;4.05;;;8.80;99.90;;;;;;5016518;28;20111;-66
2022/04/06 07:54:47;;;;;;;21.13;5.07;;;8.80;99.90;;;;;;5022684;28;20475;-66
2022/04/06 07:57:13;;;;;;;23.85;5.90;;;8.80;99.90;;;;;;5013342;28;20158;-67
2022/04/06 07:59:38;;;;;;;21.73;5.03;;;8.90;99.90;;;;;;5008982;28;20065;-67
2022/04/06 08:02:04;;;;;;;22.73;4.68;;;8.90;99.90;;;;;;5028325;28;20111;-67
2022/04/06 08:04:29;;;;;;;14.63;3.35;;;8.90;99.90;;;;;;5027849;28;20048;-67
2022/04/06 08:06:55;;;;;;;32.50;5.55;;;8.90;99.90;;;;;;5023990;28;20044;-67
2022/04/06 08:09:20;;;;;;;15.57;3.90;;;8.90;99.90;;;;;;5023455;28;20326;-67
2022/04/06 08:11:46;;;;;;;19.48;4.30;;;9.00;99.90;;;;;;5016722;28;20526;-67
2022/04/06 08:14:11;;;;;;;20.05;5.22;;;9.00;99.90;;;;;;5021731;28;20049;-67
2022/04/06 08:16:37;;;;;;;22.38;4.10;;;9.00;99.90;;;;;;5027878;28;20045;-67
2022/04/06 08:19:03;;;;;;;17.88;3.85;;;9.00;99.90;;;;;;5019885;28;20104;-67
2022/04/06 08:21:28;;;;;;;29.35;5.15;;;9.10;99.90;;;;;;5014319;28;20057;-68
2022/04/06 08:23:54;;;;;;;25.45;3.90;;;9.10;99.90;;;;;;5008836;28;20042;-67
2022/04/06 08:26:20;;;;;;;23.73;4.72;;;9.20;99.90;;;;;;5020639;28;20042;-67
2022/04/06 08:28:47;;;;;;;17.63;4.63;;;9.20;99.90;;;;;;5011965;28;20119;-67
2022/04/06 08:31:12;;;;;;;16.83;3.83;;;9.20;99.90;;;;;;5025541;28;20536;-67
2022/04/06 08:33:38;;;;;;;17.95;3.47;;;9.20;99.90;;;;;;5025413;28;20048;-67
2022/04/06 08:36:06;;;;;;;13.77;3.70;;;9.30;99.90;;;;;;5022349;28;20447;-67
2022/04/06 08:38:32;;;;;;;15.68;3.22;;;9.40;99.90;;;;;;5024060;28;20049;-68
2022/04/06 08:40:57;;;;;;;15.00;4.97;;;9.40;99.90;;;;;;5028342;28;20523;-68
2022/04/06 08:43:24;;;;;;;13.25;3.55;;;9.50;99.90;;;;;;5019184;28;20042;-68
2022/04/06 08:45:50;;;;;;;18.70;4.35;;;9.60;99.90;;;;;;5021215;28;20057;-68
2022/04/06 08:48:19;;;;;;;15.98;3.17;;;10.00;99.90;;;;;;5017401;28;20073;-67
2022/04/06 08:50:45;;;;;;;15.10;3.47;;;10.60;99.90;;;;;;5021891;28;20511;-68
2022/04/06 08:53:12;;;;;;;11.18;3.08;;;10.60;99.90;;;;;;5027613;28;20057;-67
2022/04/06 08:55:38;;;;;;;15.70;4.25;;;10.70;99.90;;;;;;5019645;28;20057;-67
2022/04/06 08:58:05;;;;;;;17.40;3.60;;;10.60;99.90;;;;;;5024038;28;20140;-67
2022/04/06 09:00:32;;;;;;;25.27;5.15;;;10.40;99.90;;;;;;5018427;28;20470;-67
2022/04/06 09:02:58;;;;;;;21.30;4.35;;;10.60;99.90;;;;;;5017938;28;20041;-67
2022/04/06 09:05:27;;;;;;;24.92;3.97;;;10.60;99.90;;;;;;5024911;28;20065;-67
2022/04/06 09:07:52;;;;;;;13.25;2.92;;;10.90;99.90;;;;;;5026306;28;20049;-66
2022/04/06 09:10:29;;;;;;;18.42;3.03;;;10.90;99.90;;;;;;5017496;28;20052;-67
2022/04/06 09:13:06;;;;;;;22.90;5.22;;;10.80;99.90;;;;;;5023986;28;20048;-67
2022/04/06 09:15:32;;;;;;;19.92;4.70;;;10.80;99.90;;;;;;5028830;28;20125;-67
2022/04/06 09:18:00;;;;;;;20.92;5.32;;;10.70;99.90;;;;;;5015634;28;20573;-66
2022/04/06 09:20:26;;;;;;;18.40;4.07;;;10.60;99.90;;;;;;5027821;28;20041;-66
2022/04/06 09:22:51;;;;;;;15.35;3.75;;;10.50;99.90;;;;;;5029371;28;20048;-67
2022/04/06 09:25:19;;;;;;;19.08;4.03;;;10.50;99.90;;;;;;5023223;28;20095;-67
2022/04/06 09:27:45;;;;;;;19.25;3.35;;;10.40;99.90;;;;;;5014343;28;20045;-67
2022/04/06 09:30:11;;;;;;;13.55;3.28;;;10.40;99.90;;;;;;5027734;28;20080;-67
2022/04/06 09:32:40;;;;;;;17.90;5.63;;;10.40;99.90;;;;;;5031128;28;20042;-67
2022/04/06 09:35:29;;;;;;;21.52;4.13;;;10.40;99.90;;;;;;5019313;28;20041;-66
2022/04/06 09:38:20;;;;;;;15.75;4.25;;;10.40;99.90;;;;;;5025925;28;20042;-66
2022/04/06 09:40:45;;;;;;;23.08;4.00;;;10.40;99.90;;;;;;5019028;28;20133;-67
2022/04/06 09:43:27;;;;;;;18.70;3.75;;;10.50;99.90;;;;;;5027282;28;20440;-67
2022/04/06 09:48:57;;;;;;;16.23;3.58;;;10.50;99.90;;;;;;5027240;28;20135;-67
2022/04/06 09:51:23;;;;;;;18.45;4.13;;;10.60;99.90;;;;;;5024453;28;20050;-67
2022/04/06 09:53:50;;;;;;;17.90;4.68;;;10.70;99.90;;;;;;5018012;28;20042;-67
2022/04/06 09:56:20;;;;;;;18.13;4.03;;;10.80;99.90;;;;;;5026031;28;20451;-67
2022/04/06 09:58:46;;;;;;;13.15;4.25;;;11.00;99.90;;;;;;5032053;28;20049;-67
2022/04/06 10:01:14;;;;;;;16.25;3.33;;;11.10;99.90;;;;;;5021038;28;20075;-67
2022/04/06 10:03:43;;;;;;;20.30;3.33;;;11.00;99.90;;;;;;5021857;28;20546;-67
2022/04/06 10:06:09;;;;;;;23.10;6.15;;;11.00;99.90;;;;;;5026488;28;20382;-67
2022/04/06 10:08:37;;;;;;;17.90;3.95;;;11.00;99.90;;;;;;5019294;28;20049;-67
2022/04/06 10:11:04;;;;;;;16.60;4.60;;;10.90;99.90;;;;;;5019851;28;20120;-67
2022/04/06 10:13:30;;;;;;;23.67;5.35;;;10.90;99.90;;;;;;5018421;28;20041;-67
2022/04/06 10:15:57;;;;;;;16.63;4.20;;;10.90;99.90;;;;;;5021530;28;20050;-67
2022/04/06 10:18:25;;;;;;;23.52;4.80;;;10.90;99.90;;;;;;5014637;28;20054;-67
2022/04/06 10:20:59;;;;;;;18.20;4.95;;;10.80;99.90;;;;;;5029921;28;20477;-67
2022/04/06 10:23:52;;;;;;;19.67;3.92;;;10.90;99.90;;;;;;5014273;28;20689;-67
2022/04/06 10:26:20;;;;;;;19.58;4.45;;;10.90;99.90;;;;;;5027492;28;20107;-67
2022/04/06 10:28:48;;;;;;;17.95;4.35;;;11.00;99.90;;;;;;5016862;28;20134;-67
2022/04/06 10:31:20;;;;;;;19.77;3.88;;;11.00;99.90;;;;;;5026513;28;20061;-67
2022/04/06 10:33:46;;;;;;;16.35;3.85;;;11.10;99.90;;;;;;5014801;28;20050;-67
2022/04/06 10:36:17;;;;;;;23.75;3.95;;;11.10;99.90;;;;;;5016725;28;20045;-67
2022/04/06 10:39:11;;;;;;;17.52;4.32;;;11.10;99.90;;;;;;5030112;28;20080;-67
2022/04/06 10:41:39;;;;;;;21.55;4.82;;;11.30;99.90;;;;;;5023422;28;20041;-67
2022/04/06 10:44:05;;;;;;;24.35;3.63;;;11.30;99.90;;;;;;5019037;28;20162;-67
2022/04/06 10:46:40;;;;;;;16.15;3.75;;;11.30;99.90;;;;;;5023049;28;20038;-67
2022/04/06 10:49:15;;;;;;;20.38;5.50;;;11.30;99.90;;;;;;5021452;28;20481;-67
2022/04/06 10:51:43;;;;;;;20.67;4.70;;;11.30;99.90;;;;;;5024504;28;20152;-67
2022/04/06 10:54:14;;;;;;;23.35;3.67;;;11.40;99.90;;;;;;5023368;28;20049;-67
2022/04/06 10:56:54;;;;;;;19.90;5.45;;;11.40;99.90;;;;;;5023118;28;20171;-67
2022/04/06 10:59:29;;;;;;;17.17;3.83;;;11.50;99.90;;;;;;5028863;28;20049;-67
2022/04/06 11:02:23;;;;;;;21.67;5.43;;;11.60;99.90;;;;;;5027325;28;20087;-67
2022/04/06 11:04:50;;;;;;;16.20;4.05;;;11.70;99.90;;;;;;5020285;28;20053;-67
2022/04/06 11:10:06;;;;;;;11.48;3.33;;;11.60;99.90;;;;;;5028154;28;20136;-67
2022/04/06 11:10:15;;;;;;;19.50;3.72;;;11.70;99.90;;;;;;5024220;28;20121;-67
2022/04/06 11:12:57;;;;;;;15.07;5.30;;;11.70;99.90;;;;;;5022964;28;20057;-67
2022/04/06 11:15:32;;;;;;;19.67;4.10;;;11.80;99.90;;;;;;5018142;28;20444;-67
2022/04/06 11:17:58;;;;;;;14.10;3.70;;;11.80;99.90;;;;;;5026702;28;20186;-66
2022/04/06 11:20:31;;;;;;;19.20;4.65;;;11.90;99.90;;;;;;5018414;28;20029;-67
2022/04/06 11:22:58;;;;;;;15.80;4.13;;;12.10;99.90;;;;;;5023776;28;20107;-67
2022/04/06 11:25:31;;;;;;;15.05;4.57;;;12.10;99.90;;;;;;5024051;28;20378;-67
2022/04/06 11:28:13;;;;;;;21.52;3.78;;;12.40;99.90;;;;;;5026710;28;20095;-67
2022/04/06 11:30:43;;;;;;;20.48;4.38;;;12.40;99.90;;;;;;5029214;28;20046;-67
2022/04/06 11:33:09;;;;;;;20.98;5.47;;;12.50;99.90;;;;;;5018262;28;20050;-67
2022/04/06 11:35:36;;;;;;;23.70;4.80;;;12.60;99.90;;;;;;5020705;28;20041;-67
2022/04/06 11:38:08;;;;;;;18.40;3.83;;;12.70;99.90;;;;;;5019910;28;20092;-66
2022/04/06 11:40:37;;;;;;;19.95;4.40;;;12.60;99.90;;;;;;5022971;28;20056;-67
2022/04/06 11:43:06;;;;;;;18.73;4.70;;;12.70;99.90;;;;;;5029588;28;20045;-67
2022/04/06 11:45:39;;;;;;;17.50;4.63;;;12.60;99.90;;;;;;5027722;28;20079;-67
2022/04/06 11:48:07;;;;;;;26.25;6.07;;;12.50;99.90;;;;;;5015961;28;20052;-66
2022/04/06 11:50:37;;;;;;;29.60;6.13;;;12.50;99.90;;;;;;5023959;28;20042;-67
2022/04/06 11:53:07;;;;;;;27.85;6.13;;;12.40;99.90;;;;;;5014266;28;20050;-67
2022/04/06 11:56:00;;;;;;;18.88;5.85;;;12.30;99.90;;;;;;5025286;28;20145;-67
2022/04/06 11:58:40;;;;;;;21.65;4.88;;;12.30;99.90;;;;;;5027603;28;20065;-67
2022/04/06 12:01:15;;;;;;;18.83;4.95;;;12.20;99.90;;;;;;5013673;28;20064;-67
2022/04/06 12:03:42;;;;;;;22.85;5.30;;;12.10;99.90;;;;;;5025993;28;20045;-67
2022/04/06 12:06:14;;;;;;;23.33;4.90;;;12.10;99.90;;;;;;5021634;28;20505;-67
2022/04/06 12:08:41;;;;;;;27.42;5.63;;;12.10;99.90;;;;;;5029010;28;20065;-68
2022/04/06 12:11:08;;;;;;;22.85;5.07;;;12.10;99.90;;;;;;5017122;28;20555;-67
2022/04/06 12:13:37;;;;;;;27.48;6.43;;;12.10;99.90;;;;;;5027336;28;20041;-67
2022/04/06 12:16:04;;;;;;;22.80;4.85;;;12.00;99.90;;;;;;5023637;28;20153;-67
2022/04/06 12:18:30;;;;;;;21.38;4.80;;;12.00;99.90;;;;;;5022604;28;20151;-67
2022/04/06 12:20:56;;;;;;;29.58;5.57;;;12.10;99.90;;;;;;5019749;28;20104;-67
2022/04/06 12:23:26;;;;;;;19.23;5.20;;;12.10;99.90;;;;;;5027676;28;20142;-67
2022/04/06 12:25:52;;;;;;;20.77;4.40;;;12.10;99.90;;;;;;5011056;28;20440;-67
2022/04/06 12:28:22;;;;;;;24.05;5.15;;;12.00;99.90;;;;;;5019227;28;20041;-67
2022/04/06 12:31:08;;;;;;;22.50;5.20;;;12.00;99.90;;;;;;5027764;28;20052;-67
2022/04/06 12:33:49;;;;;;;18.42;4.85;;;11.90;99.90;;;;;;5021374;28;20199;-67
2022/04/06 12:36:25;;;;;;;25.95;4.85;;;11.90;99.90;;;;;;5020334;28;20050;-67
2022/04/06 12:39:08;;;;;;;30.63;5.72;;;11.90;99.90;;;;;;5026609;28;20050;-67
2022/04/06 12:41:35;;;;;;;24.48;4.53;;;11.80;99.90;;;;;;5013900;28;20087;-66
2022/04/06 12:44:03;;;;;;;21.83;6.45;;;11.90;99.90;;;;;;5015013;28;20045;-67
2022/04/06 12:46:44;;;;;;;20.75;5.38;;;11.90;99.90;;;;;;5014545;28;20061;-66
2022/04/06 12:49:29;;;;;;;20.17;4.53;;;11.80;99.90;;;;;;5017625;28;20077;-66
2022/04/06 12:52:24;;;;;;;21.77;4.72;;;11.80;99.90;;;;;;5015281;28;20067;-67
2022/04/06 12:55:04;;;;;;;26.63;5.50;;;11.70;99.90;;;;;;5016731;28;20100;-67